Terminal Aerodrome Forecast
Issued by NWS Louisville, KY

Home | Current Version | Previous Version | Text Only | Print | Product List | Glossary On
Versions: 1 2 3 4 5 6 7 8 9 10 11 12 13 14 15 16 17
000
FTUS43 KLMK 172300 RRA
TAFBWG
TAF
KBWG 172342Z 1800/1824 VRB03KT P6SM BKN150
     FM180800 00000KT 5SM BR SCT002
      TEMPO 1809/1813 3SM BR SCT002
     FM181400 07006KT P6SM SCT250
     FM181800 07008KT P6SM SCT040 SCT250=

USA.gov is the U.S. government's official web portal to all federal, state and local government web resources and services.